This is the latest recevied weather packets stored in our database for station/object KO6TH-15. If no packets are shown the sender has not sent any weather packets the latest 10 day(s).
| Time | Temp. | Humidity | Pressure | Rain* | Wind** | Luminosity | Snow |
|---|---|---|---|---|---|---|---|
| 1778112920 | 22.22° C | 67% | 0 hPa | 0 mm | - | - | - |
| 1778112290 | 23.33° C | 64% | 0 hPa | 0 mm | - | - | - |
| 1778111660 | 23.33° C | 63% | 0 hPa | 0 mm | - | - | - |
| 1778111030 | 24.44° C | 62% | 0 hPa | 0 mm | - | - | - |
| 1778110400 | 23.33° C | 63% | 0 hPa | 0 mm | - | - | - |
| 1778109800 | 23.89° C | 62% | 0 hPa | 0 mm | - | - | - |
| 1778109170 | 23.89° C | 63% | 0 hPa | 0 mm | - | - | - |
| 1778108540 | 22.78° C | 66% | 0 hPa | 0 mm | - | - | - |
| 1778107910 | 23.89° C | 62% | 0 hPa | 0 mm | - | - | - |
| 1778107280 | 21.11° C | 70% | 0 hPa | 0 mm | - | - | - |
| 1778106650 | 21.67° C | 69% | 0 hPa | 0 mm | - | - | - |
| 1778106020 | 21.67° C | 69% | 0 hPa | 0 mm | - | - | - |
| 1778105390 | 20.56° C | 71% | 0 hPa | 0 mm | - | - | - |
| 1778104760 | 20° C | 73% | 0 hPa | 0 mm | - | - | - |
| 1778104130 | 19.44° C | 74% | 0 hPa | 0 mm | - | - | - |
| 1778103530 | 19.44° C | 75% | 0 hPa | 0 mm | - | - | - |
| 1778102930 | 18.89° C | 76% | 0 hPa | 0 mm | - | - | - |
| 1778102300 | 19.44° C | 75% | 0 hPa | 0 mm | - | - | - |
| 1778101700 | 18.33° C | 77% | 0 hPa | 0 mm | - | - | - |
| 1778101070 | 17.78° C | 79% | 0 hPa | 0 mm | - | - | - |
| 1778100440 | 18.33° C | 78% | 0 hPa | 0 mm | - | - | - |
| 1778099840 | 18.33° C | 78% | 0 hPa | 0 mm | - | - | - |
| 1778099210 | 17.78° C | 79% | 0 hPa | 0 mm | - | - | - |
| 1778098580 | 17.78° C | 79% | 0 hPa | 0 mm | - | - | - |
| 1778097950 | 17.78° C | 81% | 0 hPa | 0 mm | - | - | - |
* Rain latest hour (hover to see other rain measurements)
** Current wind speed in m/s (hover to see current wind gust speed)